sensor_id;sensor_type;location;lat;lon;timestamp;pressure;altitude;pressure_sealevel;temperature;humidity
28428;BME280;15662;49.128;8.520;2024-03-25T00:00:24;99770.69;;;12.54;48.69
28428;BME280;15662;49.128;8.520;2024-03-25T00:02:51;99775.22;;;12.52;48.77
28428;BME280;15662;49.128;8.520;2024-03-25T00:05:17;99769.09;;;12.50;48.87
28428;BME280;15662;49.128;8.520;2024-03-25T00:07:52;99767.44;;;12.47;49.12
28428;BME280;15662;49.128;8.520;2024-03-25T00:10:18;99770.28;;;12.43;48.91
28428;BME280;15662;49.128;8.520;2024-03-25T00:12:47;99774.69;;;12.44;48.87
28428;BME280;15662;49.128;8.520;2024-03-25T00:15:19;99773.00;;;12.41;49.05
28428;BME280;15662;49.128;8.520;2024-03-25T00:17:49;99765.91;;;12.42;48.84
28428;BME280;15662;49.128;8.520;2024-03-25T00:20:15;99763.38;;;12.38;48.97
28428;BME280;15662;49.128;8.520;2024-03-25T00:22:42;99768.63;;;12.40;49.08
28428;BME280;15662;49.128;8.520;2024-03-25T00:25:08;99765.28;;;12.35;48.98
28428;BME280;15662;49.128;8.520;2024-03-25T00:27:35;99768.78;;;12.37;49.07
28428;BME280;15662;49.128;8.520;2024-03-25T00:30:01;99760.84;;;12.35;48.71
28428;BME280;15662;49.128;8.520;2024-03-25T00:32:28;99767.00;;;12.36;49.17
28428;BME280;15662;49.128;8.520;2024-03-25T00:34:54;99766.41;;;12.29;48.97
28428;BME280;15662;49.128;8.520;2024-03-25T00:37:20;99764.44;;;12.34;49.18
28428;BME280;15662;49.128;8.520;2024-03-25T00:39:47;99757.47;;;12.32;48.99
28428;BME280;15662;49.128;8.520;2024-03-25T00:42:13;99763.66;;;12.32;49.04
28428;BME280;15662;49.128;8.520;2024-03-25T00:44:39;99773.34;;;12.33;48.85
28428;BME280;15662;49.128;8.520;2024-03-25T00:47:05;99769.00;;;12.31;48.85
28428;BME280;15662;49.128;8.520;2024-03-25T00:49:31;99768.16;;;12.30;49.06
28428;BME280;15662;49.128;8.520;2024-03-25T00:51:58;99771.75;;;12.29;49.24
28428;BME280;15662;49.128;8.520;2024-03-25T00:54:24;99769.16;;;12.28;49.07
28428;BME280;15662;49.128;8.520;2024-03-25T00:56:50;99767.44;;;12.27;49.20
28428;BME280;15662;49.128;8.520;2024-03-25T00:59:17;99771.00;;;12.26;49.00
28428;BME280;15662;49.128;8.520;2024-03-25T01:01:44;99768.41;;;12.24;49.22
28428;BME280;15662;49.128;8.520;2024-03-25T01:04:10;99758.78;;;12.22;49.14
28428;BME280;15662;49.128;8.520;2024-03-25T01:06:36;99766.63;;;12.25;49.09
28428;BME280;15662;49.128;8.520;2024-03-25T01:09:02;99762.22;;;12.24;49.45
28428;BME280;15662;49.128;8.520;2024-03-25T01:11:30;99761.22;;;12.26;49.27
28428;BME280;15662;49.128;8.520;2024-03-25T01:13:56;99751.53;;;12.25;49.27
28428;BME280;15662;49.128;8.520;2024-03-25T01:16:22;99755.91;;;12.26;49.18
28428;BME280;15662;49.128;8.520;2024-03-25T01:18:49;99749.75;;;12.26;49.24
28428;BME280;15662;49.128;8.520;2024-03-25T01:21:15;99739.09;;;12.26;49.13
28428;BME280;15662;49.128;8.520;2024-03-25T01:23:41;99753.88;;;12.33;49.04
28428;BME280;15662;49.128;8.520;2024-03-25T01:26:07;99746.75;;;12.33;49.00
28428;BME280;15662;49.128;8.520;2024-03-25T01:28:33;99750.22;;;12.35;49.25
28428;BME280;15662;49.128;8.520;2024-03-25T01:30:59;99759.13;;;12.34;49.02
28428;BME280;15662;49.128;8.520;2024-03-25T01:33:25;99751.25;;;12.31;48.87
28428;BME280;15662;49.128;8.520;2024-03-25T01:35:52;99752.19;;;12.30;49.04
28428;BME280;15662;49.128;8.520;2024-03-25T01:38:20;99761.03;;;12.31;49.29
28428;BME280;15662;49.128;8.520;2024-03-25T01:40:46;99742.69;;;12.25;49.22
28428;BME280;15662;49.128;8.520;2024-03-25T01:43:13;99746.28;;;12.24;48.96
28428;BME280;15662;49.128;8.520;2024-03-25T01:45:39;99752.34;;;12.27;49.09
28428;BME280;15662;49.128;8.520;2024-03-25T01:48:07;99758.44;;;12.29;49.16
28428;BME280;15662;49.128;8.520;2024-03-25T01:50:45;99758.53;;;12.28;49.17
28428;BME280;15662;49.128;8.520;2024-03-25T01:53:12;99757.59;;;12.29;49.18
28428;BME280;15662;49.128;8.520;2024-03-25T01:55:40;99753.31;;;12.25;49.15
28428;BME280;15662;49.128;8.520;2024-03-25T01:58:09;99755.25;;;12.21;48.96
28428;BME280;15662;49.128;8.520;2024-03-25T02:00:35;99761.44;;;12.22;49.25
28428;BME280;15662;49.128;8.520;2024-03-25T02:03:02;99761.44;;;12.22;49.28
28428;BME280;15662;49.128;8.520;2024-03-25T02:05:28;99767.66;;;12.21;49.14
28428;BME280;15662;49.128;8.520;2024-03-25T02:07:55;99761.56;;;12.19;49.43
28428;BME280;15662;49.128;8.520;2024-03-25T02:10:22;99753.59;;;12.19;49.25
28428;BME280;15662;49.128;8.520;2024-03-25T02:12:49;99750.81;;;12.22;49.29
28428;BME280;15662;49.128;8.520;2024-03-25T02:15:15;99754.16;;;12.27;49.36
28428;BME280;15662;49.128;8.520;2024-03-25T02:17:42;99756.72;;;12.28;49.27
28428;BME280;15662;49.128;8.520;2024-03-25T02:20:08;99751.41;;;12.28;49.21
28428;BME280;15662;49.128;8.520;2024-03-25T02:22:35;99760.91;;;12.34;49.09
28428;BME280;15662;49.128;8.520;2024-03-25T02:25:06;99755.47;;;12.37;48.88
28428;BME280;15662;49.128;8.520;2024-03-25T02:27:38;99753.81;;;12.34;48.83
28428;BME280;15662;49.128;8.520;2024-03-25T02:30:09;99750.22;;;12.35;49.20
28428;BME280;15662;49.128;8.520;2024-03-25T02:32:38;99743.38;;;12.30;48.96
28428;BME280;15662;49.128;8.520;2024-03-25T02:35:13;99746.75;;;12.33;49.04
28428;BME280;15662;49.128;8.520;2024-03-25T02:37:41;99745.03;;;12.32;49.13
28428;BME280;15662;49.128;8.520;2024-03-25T02:40:09;99750.38;;;12.32;48.89
28428;BME280;15662;49.128;8.520;2024-03-25T02:42:36;99738.91;;;12.30;48.87
28428;BME280;15662;49.128;8.520;2024-03-25T02:45:03;99735.28;;;12.33;48.93
28428;BME280;15662;49.128;8.520;2024-03-25T02:47:31;99740.59;;;12.33;49.11
28428;BME280;15662;49.128;8.520;2024-03-25T02:49:57;99742.38;;;12.32;49.24
28428;BME280;15662;49.128;8.520;2024-03-25T02:52:23;99722.38;;;12.24;49.09
28428;BME280;15662;49.128;8.520;2024-03-25T02:54:50;99729.22;;;12.29;49.14
28428;BME280;15662;49.128;8.520;2024-03-25T02:57:16;99739.78;;;12.31;48.83
28428;BME280;15662;49.128;8.520;2024-03-25T02:59:42;99735.31;;;12.31;49.15
28428;BME280;15662;49.128;8.520;2024-03-25T03:02:08;99728.94;;;12.35;48.81
28428;BME280;15662;49.128;8.520;2024-03-25T03:04:34;99735.13;;;12.36;48.75
28428;BME280;15662;49.128;8.520;2024-03-25T03:07:00;99724.50;;;12.36;48.79
28428;BME280;15662;49.128;8.520;2024-03-25T03:09:26;99736.91;;;12.35;48.91
28428;BME280;15662;49.128;8.520;2024-03-25T03:11:52;99730.69;;;12.36;48.96
28428;BME280;15662;49.128;8.520;2024-03-25T03:14:18;99729.81;;;12.36;48.70
28428;BME280;15662;49.128;8.520;2024-03-25T03:16:44;99737.66;;;12.39;48.84
28428;BME280;15662;49.128;8.520;2024-03-25T03:19:11;99733.34;;;12.36;48.65
28428;BME280;15662;49.128;8.520;2024-03-25T03:21:37;99729.75;;;12.37;48.60
28428;BME280;15662;49.128;8.520;2024-03-25T03:24:04;99734.16;;;12.38;48.79
28428;BME280;15662;49.128;8.520;2024-03-25T03:26:31;99733.13;;;12.41;48.75
28428;BME280;15662;49.128;8.520;2024-03-25T03:28:57;99735.75;;;12.43;49.01
28428;BME280;15662;49.128;8.520;2024-03-25T03:31:25;99731.38;;;12.42;48.50
28428;BME280;15662;49.128;8.520;2024-03-25T03:33:52;99737.53;;;12.42;48.48
28428;BME280;15662;49.128;8.520;2024-03-25T03:36:20;99734.72;;;12.45;48.65
28428;BME280;15662;49.128;8.520;2024-03-25T03:38:46;99740.88;;;12.47;48.52
28428;BME280;15662;49.128;8.520;2024-03-25T03:41:12;99737.47;;;12.44;48.53
28428;BME280;15662;49.128;8.520;2024-03-25T03:43:39;99739.19;;;12.45;48.64
28428;BME280;15662;49.128;8.520;2024-03-25T03:46:05;99738.25;;;12.46;48.39
28428;BME280;15662;49.128;8.520;2024-03-25T03:48:32;99739.19;;;12.45;48.49
28428;BME280;15662;49.128;8.520;2024-03-25T03:50:58;99740.88;;;12.47;48.54
28428;BME280;15662;49.128;8.520;2024-03-25T03:53:24;99734.88;;;12.42;48.67
28428;BME280;15662;49.128;8.520;2024-03-25T03:55:54;99742.66;;;12.47;48.80
28428;BME280;15662;49.128;8.520;2024-03-25T03:58:21;99737.53;;;12.42;48.62
28428;BME280;15662;49.128;8.520;2024-03-25T04:00:48;99734.88;;;12.42;48.73
28428;BME280;15662;49.128;8.520;2024-03-25T04:03:14;99734.88;;;12.42;48.60
28428;BME280;15662;49.128;8.520;2024-03-25T04:05:40;99742.97;;;12.39;48.59
28428;BME280;15662;49.128;8.520;2024-03-25T04:08:07;99744.84;;;12.37;48.83
28428;BME280;15662;49.128;8.520;2024-03-25T04:10:35;99725.69;;;12.29;48.93
28428;BME280;15662;49.128;8.520;2024-03-25T04:13:06;99737.94;;;12.33;48.83
28428;BME280;15662;49.128;8.520;2024-03-25T04:15:36;99730.94;;;12.30;48.98
28428;BME280;15662;49.128;8.520;2024-03-25T04:18:03;99732.06;;;12.25;48.86
28428;BME280;15662;49.128;8.520;2024-03-25T04:20:39;99730.28;;;12.25;48.68
28428;BME280;15662;49.128;8.520;2024-03-25T04:23:06;99731.31;;;12.21;49.09
28428;BME280;15662;49.128;8.520;2024-03-25T04:25:36;99730.44;;;12.22;48.93
28428;BME280;15662;49.128;8.520;2024-03-25T04:28:06;99718.97;;;12.20;48.98
28428;BME280;15662;49.128;8.520;2024-03-25T04:30:33;99725.03;;;12.24;48.64
28428;BME280;15662;49.128;8.520;2024-03-25T04:33:00;99723.31;;;12.23;49.06
28428;BME280;15662;49.128;8.520;2024-03-25T04:35:26;99718.13;;;12.20;48.68
28428;BME280;15662;49.128;8.520;2024-03-25T04:37:53;99727.78;;;12.22;48.56
28428;BME280;15662;49.128;8.520;2024-03-25T04:40:21;99730.53;;;12.19;48.51
28428;BME280;15662;49.128;8.520;2024-03-25T04:42:48;99731.59;;;12.15;48.87
28428;BME280;15662;49.128;8.520;2024-03-25T04:45:15;99737.91;;;12.12;48.93
28428;BME280;15662;49.128;8.520;2024-03-25T04:47:41;99739.72;;;12.12;48.75
28428;BME280;15662;49.128;8.520;2024-03-25T04:50:08;99738.03;;;12.09;48.68
28428;BME280;15662;49.128;8.520;2024-03-25T04:52:35;99735.31;;;12.11;48.71
28428;BME280;15662;49.128;8.520;2024-03-25T04:55:01;99737.97;;;12.11;48.61
28428;BME280;15662;49.128;8.520;2024-03-25T04:57:28;99732.72;;;12.09;48.43
28428;BME280;15662;49.128;8.520;2024-03-25T04:59:54;99740.78;;;12.08;48.86
28428;BME280;15662;49.128;8.520;2024-03-25T05:02:20;99758.34;;;12.10;48.59
28428;BME280;15662;49.128;8.520;2024-03-25T05:04:46;99757.50;;;12.10;48.57
28428;BME280;15662;49.128;8.520;2024-03-25T05:07:12;99755.78;;;12.09;48.33
28428;BME280;15662;49.128;8.520;2024-03-25T05:09:39;99759.47;;;12.05;48.33
28428;BME280;15662;49.128;8.520;2024-03-25T05:12:06;99758.72;;;12.01;48.48
28428;BME280;15662;49.128;8.520;2024-03-25T05:14:32;99751.09;;;11.94;48.38
28428;BME280;15662;49.128;8.520;2024-03-25T05:16:58;99751.97;;;11.94;48.19
28428;BME280;15662;49.128;8.520;2024-03-25T05:19:24;99757.38;;;11.91;48.44
28428;BME280;15662;49.128;8.520;2024-03-25T05:21:50;99761.91;;;11.89;48.15
28428;BME280;15662;49.128;8.520;2024-03-25T05:24:16;99756.78;;;11.84;48.32
28428;BME280;15662;49.128;8.520;2024-03-25T05:26:43;99756.84;;;11.81;48.25
28428;BME280;15662;49.128;8.520;2024-03-25T05:29:09;99757.03;;;11.77;48.56
28428;BME280;15662;49.128;8.520;2024-03-25T05:31:35;99759.78;;;11.75;48.29
28428;BME280;15662;49.128;8.520;2024-03-25T05:34:02;99749.34;;;11.71;48.67
28428;BME280;15662;49.128;8.520;2024-03-25T05:36:34;99757.44;;;11.68;48.62
28428;BME280;15662;49.128;8.520;2024-03-25T05:39:00;99755.75;;;11.65;48.76
28428;BME280;15662;49.128;8.520;2024-03-25T05:41:26;99763.84;;;11.62;48.53
28428;BME280;15662;49.128;8.520;2024-03-25T05:43:53;99745.44;;;11.57;48.54
28428;BME280;15662;49.128;8.520;2024-03-25T05:46:20;99756.19;;;11.54;48.51
28428;BME280;15662;49.128;8.520;2024-03-25T05:48:46;99744.06;;;11.47;48.66
28428;BME280;15662;49.128;8.520;2024-03-25T05:51:12;99760.69;;;11.52;48.73
28428;BME280;15662;49.128;8.520;2024-03-25T05:53:40;99766.91;;;11.51;49.00
28428;BME280;15662;49.128;8.520;2024-03-25T05:56:07;99765.28;;;11.47;48.78
28428;BME280;15662;49.128;8.520;2024-03-25T05:58:34;99753.03;;;11.45;48.92
28428;BME280;15662;49.128;8.520;2024-03-25T06:01:00;99755.75;;;11.43;48.95
28428;BME280;15662;49.128;8.520;2024-03-25T06:03:27;99752.44;;;11.36;49.14
28428;BME280;15662;49.128;8.520;2024-03-25T06:05:53;99747.09;;;11.38;49.19
28428;BME280;15662;49.128;8.520;2024-03-25T06:08:19;99755.94;;;11.39;49.26
28428;BME280;15662;49.128;8.520;2024-03-25T06:10:53;99757.66;;;11.40;49.08
28428;BME280;15662;49.128;8.520;2024-03-25T06:13:20;99746.00;;;11.44;49.32
28428;BME280;15662;49.128;8.520;2024-03-25T06:15:47;99759.19;;;11.45;49.39
28428;BME280;15662;49.128;8.520;2024-03-25T06:18:13;99750.44;;;11.43;49.11
28428;BME280;15662;49.128;8.520;2024-03-25T06:20:39;99764.41;;;11.48;49.14
28428;BME280;15662;49.128;8.520;2024-03-25T06:23:05;99750.31;;;11.46;49.17
28428;BME280;15662;49.128;8.520;2024-03-25T06:25:32;99753.59;;;11.53;49.35
28428;BME280;15662;49.128;8.520;2024-03-25T06:27:59;99765.75;;;11.58;49.46
28428;BME280;15662;49.128;8.520;2024-03-25T06:30:25;99753.28;;;11.60;49.70
28428;BME280;15662;49.128;8.520;2024-03-25T06:33:10;99759.28;;;11.66;49.38
28428;BME280;15662;49.128;8.520;2024-03-25T06:35:54;99765.44;;;11.66;49.69
28428;BME280;15662;49.128;8.520;2024-03-25T06:38:21;99774.84;;;11.75;49.70
28428;BME280;15662;49.128;8.520;2024-03-25T06:40:47;99764.09;;;11.78;49.65
28428;BME280;15662;49.128;8.520;2024-03-25T06:43:13;99770.22;;;11.80;49.74
28428;BME280;15662;49.128;8.520;2024-03-25T06:45:42;99767.47;;;11.83;49.69
28428;BME280;15662;49.128;8.520;2024-03-25T06:48:08;99779.75;;;11.85;49.79
28428;BME280;15662;49.128;8.520;2024-03-25T06:50:34;99764.81;;;11.81;49.94
28428;BME280;15662;49.128;8.520;2024-03-25T06:53:00;99766.28;;;11.90;50.16
28428;BME280;15662;49.128;8.520;2024-03-25T06:55:27;99780.16;;;11.97;50.26
28428;BME280;15662;49.128;8.520;2024-03-25T06:57:54;99766.97;;;11.95;49.98
28428;BME280;15662;49.128;8.520;2024-03-25T07:00:21;99779.75;;;12.07;50.04
28428;BME280;15662;49.128;8.520;2024-03-25T07:02:49;99784.88;;;12.12;50.11
28428;BME280;15662;49.128;8.520;2024-03-25T07:05:15;99769.72;;;12.14;50.30
28428;BME280;15662;49.128;8.520;2024-03-25T07:07:41;99778.44;;;12.18;50.14
28428;BME280;15662;49.128;8.520;2024-03-25T07:10:07;99782.75;;;12.20;50.10
28428;BME280;15662;49.128;8.520;2024-03-25T07:12:34;99780.91;;;12.22;50.14
28428;BME280;15662;49.128;8.520;2024-03-25T07:15:00;99771.00;;;12.26;50.52
28428;BME280;15662;49.128;8.520;2024-03-25T07:17:26;99771.63;;;12.32;50.26
28428;BME280;15662;49.128;8.520;2024-03-25T07:19:53;99779.25;;;12.40;50.21
28428;BME280;15662;49.128;8.520;2024-03-25T07:22:19;99771.00;;;12.46;50.29
28428;BME280;15662;49.128;8.520;2024-03-25T07:24:45;99761.06;;;12.51;50.08
28428;BME280;15662;49.128;8.520;2024-03-25T07:27:11;99771.44;;;12.57;50.14
28428;BME280;15662;49.128;8.520;2024-03-25T07:29:38;99757.97;;;12.60;50.38
28428;BME280;15662;49.128;8.520;2024-03-25T07:32:05;99753.31;;;12.65;50.22
28428;BME280;15662;49.128;8.520;2024-03-25T07:34:31;99758.03;;;12.79;50.39
28428;BME280;15662;49.128;8.520;2024-03-25T07:36:57;99763.81;;;12.89;50.22
28428;BME280;15662;49.128;8.520;2024-03-25T07:39:23;99760.81;;;12.97;50.14
28428;BME280;15662;49.128;8.520;2024-03-25T07:41:50;99743.63;;;13.04;50.07
28428;BME280;15662;49.128;8.520;2024-03-25T07:44:16;99746.81;;;13.12;50.02
28428;BME280;15662;49.128;8.520;2024-03-25T07:46:42;99761.63;;;13.17;49.95
28428;BME280;15662;49.128;8.520;2024-03-25T07:49:09;99739.31;;;13.22;49.95
28428;BME280;15662;49.128;8.520;2024-03-25T07:51:35;99751.53;;;13.26;49.92
28428;BME280;15662;49.128;8.520;2024-03-25T07:54:02;99750.31;;;13.33;49.74
28428;BME280;15662;49.128;8.520;2024-03-25T07:56:31;99744.97;;;13.33;49.77
28428;BME280;15662;49.128;8.520;2024-03-25T07:58:58;99750.75;;;13.42;49.40
28428;BME280;15662;49.128;8.520;2024-03-25T08:01:25;99753.09;;;13.49;49.43
28428;BME280;15662;49.128;8.520;2024-03-25T08:03:52;99751.16;;;13.52;49.40
28428;BME280;15662;49.128;8.520;2024-03-25T08:06:18;99747.22;;;13.61;49.28
28428;BME280;15662;49.128;8.520;2024-03-25T08:08:44;99749.66;;;13.65;49.22
28428;BME280;15662;49.128;8.520;2024-03-25T08:11:10;99744.16;;;13.68;48.99
28428;BME280;15662;49.128;8.520;2024-03-25T08:13:36;99748.31;;;13.74;48.65
28428;BME280;15662;49.128;8.520;2024-03-25T08:16:02;99749.13;;;13.76;48.80
28428;BME280;15662;49.128;8.520;2024-03-25T08:18:29;99747.97;;;13.82;48.53
28428;BME280;15662;49.128;8.520;2024-03-25T08:20:56;99740.75;;;13.84;48.41
28428;BME280;15662;49.128;8.520;2024-03-25T08:23:22;99737.72;;;13.91;48.32
28428;BME280;15662;49.128;8.520;2024-03-25T08:25:48;99732.25;;;13.94;48.26
28428;BME280;15662;49.128;8.520;2024-03-25T08:28:15;99723.31;;;13.96;48.09
28428;BME280;15662;49.128;8.520;2024-03-25T08:30:41;99736.09;;;14.06;48.17
28428;BME280;15662;49.128;8.520;2024-03-25T08:33:07;99735.94;;;14.09;48.23
28428;BME280;15662;49.128;8.520;2024-03-25T08:35:34;99737.34;;;14.16;48.13
28428;BME280;15662;49.128;8.520;2024-03-25T08:38:00;99725.50;;;14.22;47.97
28428;BME280;15662;49.128;8.520;2024-03-25T08:40:26;99717.38;;;14.25;47.91
28428;BME280;15662;49.128;8.520;2024-03-25T08:42:53;99713.06;;;14.40;47.83
28428;BME280;15662;49.128;8.520;2024-03-25T08:45:19;99729.22;;;14.54;47.80
28428;BME280;15662;49.128;8.520;2024-03-25T08:47:45;99716.19;;;14.65;47.70
28428;BME280;15662;49.128;8.520;2024-03-25T08:50:11;99724.47;;;14.77;47.74
28428;BME280;15662;49.128;8.520;2024-03-25T08:52:37;99720.56;;;14.84;47.04
28428;BME280;15662;49.128;8.520;2024-03-25T08:55:06;99713.22;;;14.87;46.46
28428;BME280;15662;49.128;8.520;2024-03-25T08:57:33;99722.03;;;14.89;46.20
28428;BME280;15662;49.128;8.520;2024-03-25T08:59:59;99721.84;;;14.92;46.10
28428;BME280;15662;49.128;8.520;2024-03-25T09:02:25;99728.44;;;15.03;45.83
28428;BME280;15662;49.128;8.520;2024-03-25T09:04:51;99723.00;;;15.04;45.63
28428;BME280;15662;49.128;8.520;2024-03-25T09:07:18;99717.31;;;15.10;45.38
28428;BME280;15662;49.128;8.520;2024-03-25T09:09:45;99708.19;;;15.14;45.22
28428;BME280;15662;49.128;8.520;2024-03-25T09:12:34;99707.09;;;15.18;44.43
28428;BME280;15662;49.128;8.520;2024-03-25T09:15:00;99696.22;;;15.21;43.68
28428;BME280;15662;49.128;8.520;2024-03-25T09:17:27;99711.75;;;15.31;43.47
28428;BME280;15662;49.128;8.520;2024-03-25T09:19:53;99690.31;;;15.32;43.44
28428;BME280;15662;49.128;8.520;2024-03-25T09:22:19;99692.63;;;15.38;43.24
28428;BME280;15662;49.128;8.520;2024-03-25T09:24:45;99693.13;;;15.45;43.20
28428;BME280;15662;49.128;8.520;2024-03-25T09:27:11;99684.00;;;15.49;43.21
28428;BME280;15662;49.128;8.520;2024-03-25T09:29:38;99686.31;;;15.55;43.22
28428;BME280;15662;49.128;8.520;2024-03-25T09:32:04;99679.63;;;15.64;43.17
28428;BME280;15662;49.128;8.520;2024-03-25T09:34:31;99659.91;;;15.66;42.83
28428;BME280;15662;49.128;8.520;2024-03-25T09:36:57;99666.72;;;15.72;42.83
28428;BME280;15662;49.128;8.520;2024-03-25T09:39:23;99665.38;;;15.79;42.69
28428;BME280;15662;49.128;8.520;2024-03-25T09:41:51;99652.88;;;15.80;42.30
28428;BME280;15662;49.128;8.520;2024-03-25T09:44:24;99657.09;;;15.84;42.31
28428;BME280;15662;49.128;8.520;2024-03-25T09:46:51;99641.06;;;15.84;42.09
28428;BME280;15662;49.128;8.520;2024-03-25T09:49:17;99651.81;;;15.98;41.90
28428;BME280;15662;49.128;8.520;2024-03-25T09:51:45;99648.00;;;16.02;41.63
28428;BME280;15662;49.128;8.520;2024-03-25T09:54:11;99641.44;;;16.08;41.27
28428;BME280;15662;49.128;8.520;2024-03-25T09:56:39;99630.34;;;16.14;40.94
28428;BME280;15662;49.128;8.520;2024-03-25T09:59:05;99624.06;;;16.15;40.90
28428;BME280;15662;49.128;8.520;2024-03-25T10:01:31;99629.97;;;16.20;40.66
28428;BME280;15662;49.128;8.520;2024-03-25T10:03:57;99627.81;;;16.27;40.36
28428;BME280;15662;49.128;8.520;2024-03-25T10:06:24;99636.59;;;16.29;39.86
28428;BME280;15662;49.128;8.520;2024-03-25T10:08:54;99630.22;;;16.31;39.86
28428;BME280;15662;49.128;8.520;2024-03-25T10:11:20;99632.41;;;16.39;40.26
28428;BME280;15662;49.128;8.520;2024-03-25T10:13:46;99621.13;;;16.48;40.23
28428;BME280;15662;49.128;8.520;2024-03-25T10:16:13;99618.94;;;16.55;40.20
28428;BME280;15662;49.128;8.520;2024-03-25T10:18:39;99603.84;;;16.54;39.98
28428;BME280;15662;49.128;8.520;2024-03-25T10:21:10;99598.31;;;16.57;39.57
28428;BME280;15662;49.128;8.520;2024-03-25T10:23:36;99595.13;;;16.64;39.43
28428;BME280;15662;49.128;8.520;2024-03-25T10:26:07;99594.97;;;16.53;40.09
28428;BME280;15662;49.128;8.520;2024-03-25T10:28:34;99593.44;;;16.63;39.84
28428;BME280;15662;49.128;8.520;2024-03-25T10:31:04;99586.19;;;16.65;39.14
28428;BME280;15662;49.128;8.520;2024-03-25T10:33:31;99586.81;;;16.69;39.46
28428;BME280;15662;49.128;8.520;2024-03-25T10:35:59;99582.00;;;16.75;39.22
28428;BME280;15662;49.128;8.520;2024-03-25T10:38:28;99580.81;;;16.80;39.29
28428;BME280;15662;49.128;8.520;2024-03-25T10:40:57;99563.03;;;16.79;38.70
28428;BME280;15662;49.128;8.520;2024-03-25T10:43:28;99568.09;;;16.83;38.53
28428;BME280;15662;49.128;8.520;2024-03-25T10:45:56;99569.63;;;16.87;38.47
28428;BME280;15662;49.128;8.520;2024-03-25T10:48:39;99558.75;;;16.90;38.06
28428;BME280;15662;49.128;8.520;2024-03-25T10:51:09;99559.66;;;16.89;38.40
28428;BME280;15662;49.128;8.520;2024-03-25T10:53:37;99550.50;;;16.93;38.05
28428;BME280;15662;49.128;8.520;2024-03-25T10:56:05;99556.50;;;16.97;38.00
28428;BME280;15662;49.128;8.520;2024-03-25T10:58:33;99551.16;;;16.97;38.00
28428;BME280;15662;49.128;8.520;2024-03-25T11:01:00;99541.13;;;17.00;37.92
28428;BME280;15662;49.128;8.520;2024-03-25T11:03:27;99538.44;;;17.00;37.66
28428;BME280;15662;49.128;8.520;2024-03-25T11:05:54;99534.59;;;17.05;37.28
28428;BME280;15662;49.128;8.520;2024-03-25T11:08:20;99530.97;;;17.06;37.27
28428;BME280;15662;49.128;8.520;2024-03-25T11:10:47;99521.47;;;17.14;37.11
28428;BME280;15662;49.128;8.520;2024-03-25T11:13:16;99520.28;;;17.18;37.06
28428;BME280;15662;49.128;8.520;2024-03-25T11:15:44;99511.94;;;17.23;36.89
28428;BME280;15662;49.128;8.520;2024-03-25T11:18:16;99499.09;;;17.28;36.71
28428;BME280;15662;49.128;8.520;2024-03-25T11:20:43;99494.22;;;17.08;37.30
28428;BME280;15662;49.128;8.520;2024-03-25T11:23:11;99491.06;;;17.15;36.96
28428;BME280;15662;49.128;8.520;2024-03-25T11:25:38;99492.22;;;17.24;36.46
28428;BME280;15662;49.128;8.520;2024-03-25T11:28:05;99484.13;;;17.25;36.28
28428;BME280;15662;49.128;8.520;2024-03-25T11:30:32;99487.34;;;17.31;36.10
28428;BME280;15662;49.128;8.520;2024-03-25T11:33:02;99486.06;;;17.36;35.85
28428;BME280;15662;49.128;8.520;2024-03-25T11:35:29;99479.97;;;17.34;36.15
28428;BME280;15662;49.128;8.520;2024-03-25T11:37:55;99481.25;;;17.41;35.85
28428;BME280;15662;49.128;8.520;2024-03-25T11:40:21;99468.91;;;17.39;35.51
28428;BME280;15662;49.128;8.520;2024-03-25T11:42:47;99467.00;;;17.41;35.54
28428;BME280;15662;49.128;8.520;2024-03-25T11:45:19;99464.22;;;17.42;35.33
28428;BME280;15662;49.128;8.520;2024-03-25T11:47:48;99467.00;;;17.41;35.40
28428;BME280;15662;49.128;8.520;2024-03-25T11:50:18;99455.63;;;17.37;35.08
28428;BME280;15662;49.128;8.520;2024-03-25T11:52:44;99444.06;;;17.37;35.16
28428;BME280;15662;49.128;8.520;2024-03-25T11:55:16;99446.00;;;17.35;34.71
28428;BME280;15662;49.128;8.520;2024-03-25T11:57:43;99437.31;;;17.31;34.98
28428;BME280;15662;49.128;8.520;2024-03-25T12:00:09;99429.16;;;17.33;34.82
28428;BME280;15662;49.128;8.520;2024-03-25T12:02:45;99429.28;;;17.31;34.69
28428;BME280;15662;49.128;8.520;2024-03-25T12:05:13;99427.78;;;17.27;34.65
28428;BME280;15662;49.128;8.520;2024-03-25T12:07:39;99423.25;;;17.27;34.64
28428;BME280;15662;49.128;8.520;2024-03-25T12:10:06;99410.84;;;17.26;34.64
28428;BME280;15662;49.128;8.520;2024-03-25T12:12:51;99413.53;;;17.26;34.85
28428;BME280;15662;49.128;8.520;2024-03-25T12:15:20;99406.34;;;17.27;34.67
28428;BME280;15662;49.128;8.520;2024-03-25T12:17:47;99411.38;;;17.32;34.68
28428;BME280;15662;49.128;8.520;2024-03-25T12:20:16;99397.13;;;17.31;34.49
28428;BME280;15662;49.128;8.520;2024-03-25T12:22:44;99378.50;;;17.30;34.37
28428;BME280;15662;49.128;8.520;2024-03-25T12:25:10;99391.66;;;17.33;34.46
28428;BME280;15662;49.128;8.520;2024-03-25T12:27:38;99372.84;;;17.34;34.30
28428;BME280;15662;49.128;8.520;2024-03-25T12:30:08;99374.97;;;17.29;34.21
28428;BME280;15662;49.128;8.520;2024-03-25T12:35:10;99348.41;;;17.26;33.96
28428;BME280;15662;49.128;8.520;2024-03-25T12:37:39;99354.50;;;17.28;34.10
28428;BME280;15662;49.128;8.520;2024-03-25T12:40:07;99347.22;;;17.30;33.94
28428;BME280;15662;49.128;8.520;2024-03-25T12:42:35;99329.34;;;17.31;34.10
28428;BME280;15662;49.128;8.520;2024-03-25T12:45:02;99340.47;;;17.37;34.24
28428;BME280;15662;49.128;8.520;2024-03-25T12:47:29;99326.75;;;17.42;34.11
28428;BME280;15662;49.128;8.520;2024-03-25T12:49:59;99326.44;;;17.46;33.82
28428;BME280;15662;49.128;8.520;2024-03-25T12:52:26;99325.56;;;17.46;33.87
28428;BME280;15662;49.128;8.520;2024-03-25T12:54:52;99320.09;;;17.47;33.66
28428;BME280;15662;49.128;8.520;2024-03-25T12:57:18;99312.19;;;17.46;33.21
28428;BME280;15662;49.128;8.520;2024-03-25T12:59:47;99308.66;;;17.45;33.34
28428;BME280;15662;49.128;8.520;2024-03-25T13:02:18;99310.16;;;17.49;33.01